createdAt,value
2016-06-07T00:00:11.788Z,0
2016-06-07T00:01:11.775Z,0
2016-06-07T00:02:11.763Z,0
2016-06-07T00:03:11.797Z,0
2016-06-07T00:04:11.751Z,0
2016-06-07T00:05:11.786Z,0
2016-06-07T00:06:12.319Z,0
2016-06-07T00:07:11.744Z,0
2016-06-07T00:08:11.574Z,0
2016-06-07T00:09:11.749Z,0
2016-06-07T00:10:11.705Z,0
2016-06-07T00:11:11.708Z,0
2016-06-07T00:12:11.665Z,0
2016-06-07T00:13:11.651Z,0
2016-06-07T00:14:11.512Z,0
2016-06-07T00:15:11.656Z,0
2016-06-07T00:16:11.628Z,0
2016-06-07T00:17:11.693Z,0
2016-06-07T00:18:11.633Z,0
2016-06-07T00:19:11.604Z,0
2016-06-07T00:20:11.592Z,0
2016-06-07T00:21:12.470Z,0
2016-06-07T00:22:11.582Z,0
2016-06-07T00:23:11.569Z,0
2016-06-07T00:24:11.571Z,0
2016-06-07T00:25:11.574Z,0
2016-06-07T00:26:11.545Z,0
2016-06-07T00:27:11.532Z,0
2016-06-07T00:28:11.536Z,0
2016-06-07T00:29:11.367Z,0
2016-06-07T00:30:11.494Z,0
2016-06-07T00:31:11.496Z,0
2016-06-07T00:32:11.499Z,0
2016-06-07T00:33:11.486Z,0
2016-06-07T00:34:11.489Z,0
2016-06-07T00:35:11.476Z,0
2016-06-07T00:36:11.697Z,0
2016-06-07T00:37:11.465Z,0
2016-06-07T00:38:11.438Z,0
2016-06-07T00:39:11.424Z,0
2016-06-07T00:40:11.410Z,0
2016-06-07T00:41:11.413Z,0
2016-06-07T00:42:11.479Z,0
2016-06-07T00:43:11.388Z,0
2016-06-07T00:44:11.453Z,0
2016-06-07T00:45:11.378Z,0
2016-06-07T00:46:11.443Z,0
2016-06-07T00:47:11.337Z,0
2016-06-07T00:48:11.401Z,0
2016-06-07T00:49:11.185Z,0
2016-06-07T00:50:11.406Z,0
2016-06-07T00:51:11.440Z,0
2016-06-07T00:52:11.193Z,0
2016-06-07T00:53:11.306Z,0
2016-06-07T00:54:11.339Z,0
2016-06-07T00:55:11.280Z,0
2016-06-07T00:56:11.329Z,0
2016-06-07T00:57:11.254Z,0
2016-06-07T00:58:11.319Z,0
2016-06-07T00:59:11.244Z,0
2016-06-07T01:00:11.247Z,0
2016-06-07T01:01:11.233Z,0
2016-06-07T01:02:11.205Z,0
2016-06-07T01:03:11.208Z,0
2016-06-07T01:04:11.225Z,0
2016-06-07T01:05:11.182Z,0
2016-06-07T01:06:11.590Z,0
2016-06-07T01:07:11.171Z,0
2016-06-07T01:08:11.143Z,0
2016-06-07T01:09:11.146Z,0
2016-06-07T01:10:11.149Z,0
2016-06-07T01:11:10.994Z,0
2016-06-07T01:12:11.121Z,0
2016-06-07T01:13:11.109Z,0
2016-06-07T01:14:11.127Z,0
2016-06-07T01:15:11.099Z,0
2016-06-07T01:16:11.101Z,0
2016-06-07T01:17:11.120Z,0
2016-06-07T01:18:11.060Z,0
2016-06-07T01:19:11.062Z,0
2016-06-07T01:20:11.065Z,0
2016-06-07T01:21:11.600Z,0
2016-06-07T01:22:10.884Z,0
2016-06-07T01:23:11.026Z,0
2016-06-07T01:24:11.014Z,0
2016-06-07T01:25:10.985Z,0
2016-06-07T01:26:10.989Z,0
2016-06-07T01:27:10.959Z,0
2016-06-07T01:28:10.962Z,0
2016-06-07T01:29:11.042Z,0
2016-06-07T01:30:10.952Z,0
2016-06-07T01:31:11.002Z,0
2016-06-07T01:32:10.926Z,0
2016-06-07T01:33:10.928Z,0
2016-06-07T01:34:10.900Z,0
2016-06-07T01:35:10.918Z,0
2016-06-07T01:36:10.750Z,0
2016-06-07T01:37:10.986Z,0
2016-06-07T01:38:10.864Z,0
2016-06-07T01:39:10.866Z,0
2016-06-07T01:40:10.854Z,0
2016-06-07T01:41:10.919Z,0
2016-06-07T01:42:10.844Z,0
2016-06-07T01:43:10.815Z,0
2016-06-07T01:44:10.832Z,0
2016-06-07T01:45:10.851Z,0
2016-06-07T01:46:10.807Z,0
2016-06-07T01:47:10.794Z,0
2016-06-07T01:48:10.769Z,0
2016-06-07T01:49:10.834Z,0
2016-06-07T01:50:10.804Z,0
2016-06-07T01:51:10.900Z,0
2016-06-07T01:52:10.792Z,0
2016-06-07T01:53:10.652Z,0
2016-06-07T01:54:10.801Z,0
2016-06-07T01:55:10.809Z,0
2016-06-07T01:56:10.802Z,0
2016-06-07T01:57:10.856Z,0
2016-06-07T01:58:10.786Z,0
2016-06-07T01:59:10.774Z,0
2016-06-07T02:00:10.778Z,0
2016-06-07T02:01:10.783Z,0
2016-06-07T02:02:10.757Z,0
2016-06-07T02:03:10.730Z,0
2016-06-07T02:04:10.734Z,0
2016-06-07T02:05:10.738Z,0
2016-06-07T02:06:10.897Z,0
2016-06-07T02:07:11.400Z,0
2016-06-07T02:08:10.701Z,0
2016-06-07T02:09:10.704Z,0
2016-06-07T02:10:10.691Z,0
2016-06-07T02:11:10.662Z,0
2016-06-07T02:12:10.666Z,0
2016-06-07T02:13:10.653Z,0
2016-06-07T02:14:10.641Z,0
2016-06-07T02:15:10.643Z,0
2016-06-07T02:16:10.630Z,0
2016-06-07T02:17:10.632Z,0
2016-06-07T02:18:10.652Z,0
2016-06-07T02:19:10.607Z,0
2016-06-07T02:20:10.579Z,0
2016-06-07T02:21:10.456Z,0
2016-06-07T02:22:11.756Z,0
2016-06-07T02:23:10.571Z,0
2016-06-07T02:24:10.543Z,0
2016-06-07T02:25:10.560Z,0
2016-06-07T02:26:10.532Z,0
2016-06-07T02:27:10.363Z,0
2016-06-07T02:28:10.365Z,0
2016-06-07T02:29:10.493Z,0
2016-06-07T02:30:10.495Z,0
2016-06-07T02:31:10.483Z,0
2016-06-07T02:32:10.454Z,0
2016-06-07T02:33:10.473Z,0
2016-06-07T02:34:10.460Z,0
2016-06-07T02:35:10.447Z,4
2016-06-07T02:36:10.481Z,4
2016-06-07T02:37:11.092Z,4
2016-06-07T02:38:10.408Z,0
2016-06-07T02:39:10.395Z,0
2016-06-07T02:40:10.398Z,0
2016-06-07T02:41:10.369Z,4
2016-06-07T02:42:10.372Z,4
2016-06-07T02:43:10.375Z,4
2016-06-07T02:44:10.408Z,4
2016-06-07T02:45:10.349Z,4
2016-06-07T02:46:10.336Z,4
2016-06-07T02:47:10.307Z,4
2016-06-07T02:48:10.310Z,8
2016-06-07T02:49:10.328Z,4
2016-06-07T02:50:10.300Z,4
2016-06-07T02:51:10.741Z,8
2016-06-07T02:52:10.117Z,8
2016-06-07T02:53:10.277Z,12
2016-06-07T02:54:10.263Z,12
2016-06-07T02:55:10.251Z,12
2016-06-07T02:56:10.238Z,16
2016-06-07T02:57:10.225Z,16
2016-06-07T02:58:10.212Z,20
2016-06-07T02:59:10.199Z,20
2016-06-07T03:00:10.030Z,24
2016-06-07T03:01:10.173Z,24
2016-06-07T03:02:10.192Z,28
2016-06-07T03:03:10.178Z,28
2016-06-07T03:04:10.197Z,32
2016-06-07T03:05:10.137Z,36
2016-06-07T03:06:09.983Z,40
2016-06-07T03:07:10.127Z,40
2016-06-07T03:08:10.114Z,44
2016-06-07T03:09:10.101Z,48
2016-06-07T03:10:09.931Z,52
2016-06-07T03:11:10.091Z,56
2016-06-07T03:12:10.077Z,56
2016-06-07T03:13:10.080Z,64
2016-06-07T03:14:10.036Z,64
2016-06-07T03:15:10.116Z,72
2016-06-07T03:16:10.026Z,76
2016-06-07T03:17:10.060Z,84
2016-06-07T03:18:10.016Z,96
2016-06-07T03:19:10.019Z,104
2016-06-07T03:20:10.005Z,112
2016-06-07T03:21:09.665Z,120
2016-06-07T03:22:10.308Z,132
2016-06-07T03:23:09.998Z,144
2016-06-07T03:24:09.954Z,152
2016-06-07T03:25:09.988Z,164
2016-06-07T03:26:09.944Z,180
2016-06-07T03:27:09.977Z,192
2016-06-07T03:28:09.902Z,204
2016-06-07T03:29:09.889Z,212
2016-06-07T03:30:09.892Z,228
2016-06-07T03:31:09.879Z,244
2016-06-07T03:32:09.882Z,256
2016-06-07T03:33:09.853Z,268
2016-06-07T03:34:09.856Z,284
2016-06-07T03:35:09.842Z,300
2016-06-07T03:36:09.533Z,312
2016-06-07T03:37:10.286Z,332
2016-06-07T03:38:09.803Z,348
2016-06-07T03:39:09.853Z,364
2016-06-07T03:40:09.825Z,380
2016-06-07T03:41:09.797Z,400
2016-06-07T03:42:09.783Z,420
2016-06-07T03:43:09.755Z,440
2016-06-07T03:44:09.742Z,456
2016-06-07T03:45:09.744Z,480
2016-06-07T03:46:09.732Z,496
2016-06-07T03:47:09.750Z,512
2016-06-07T03:48:09.705Z,528
2016-06-07T03:49:09.693Z,540
2016-06-07T03:50:09.696Z,560
2016-06-07T03:51:09.636Z,576
2016-06-07T03:52:10.154Z,592
2016-06-07T03:53:09.672Z,612
2016-06-07T03:54:09.660Z,628
2016-06-07T03:55:09.631Z,644
2016-06-07T03:56:09.634Z,660
2016-06-07T03:57:09.636Z,676
2016-06-07T03:58:09.607Z,688
2016-06-07T03:59:09.595Z,708
2016-06-07T04:00:09.520Z,724
2016-06-07T04:01:09.569Z,748
2016-06-07T04:02:09.571Z,764
2016-06-07T04:03:09.559Z,788
2016-06-07T04:04:09.623Z,804
2016-06-07T04:05:09.564Z,820
2016-06-07T04:06:10.020Z,832
2016-06-07T04:07:09.507Z,840
2016-06-07T04:08:09.572Z,856
2016-06-07T04:09:09.481Z,868
2016-06-07T04:10:09.547Z,884
2016-06-07T04:11:09.470Z,896
2016-06-07T04:12:09.536Z,912
2016-06-07T04:13:09.445Z,928
2016-06-07T04:14:09.292Z,948
2016-06-07T04:15:09.294Z,960
2016-06-07T04:16:09.421Z,968
2016-06-07T04:17:09.441Z,972
2016-06-07T04:18:09.444Z,976
2016-06-07T04:19:09.242Z,988
2016-06-07T04:20:09.385Z,992
2016-06-07T04:21:09.216Z,1000
2016-06-07T04:22:09.985Z,1012
2016-06-07T04:23:09.363Z,1032
2016-06-07T04:24:09.366Z,1044
2016-06-07T04:25:09.352Z,1064
2016-06-07T04:26:09.370Z,1092
2016-06-07T04:27:09.327Z,1116
2016-06-07T04:28:09.360Z,1144
2016-06-07T04:29:09.301Z,1172
2016-06-07T04:30:09.318Z,1200
2016-06-07T04:31:09.275Z,1224
2016-06-07T04:32:09.277Z,1248
2016-06-07T04:33:09.248Z,1268
2016-06-07T04:34:09.252Z,1296
2016-06-07T04:35:09.066Z,1316
2016-06-07T04:36:09.242Z,1344
2016-06-07T04:37:09.744Z,1376
2016-06-07T04:38:09.840Z,1408
2016-06-07T04:39:09.233Z,1432
2016-06-07T04:40:09.190Z,1464
2016-06-07T04:41:09.176Z,1492
2016-06-07T04:42:09.179Z,1520
2016-06-07T04:43:09.150Z,1540
2016-06-07T04:44:09.154Z,1564
2016-06-07T04:45:09.124Z,1584
2016-06-07T04:46:09.143Z,1608
2016-06-07T04:47:09.114Z,1636
2016-06-07T04:48:09.117Z,1660
2016-06-07T04:49:09.105Z,1692
2016-06-07T04:50:09.091Z,1712
2016-06-07T04:51:08.922Z,1736
2016-06-07T04:52:08.893Z,1752
2016-06-07T04:53:09.224Z,1760
2016-06-07T04:54:09.055Z,1772
2016-06-07T04:55:09.043Z,1776
2016-06-07T04:56:09.013Z,1780
2016-06-07T04:57:09.048Z,1788
2016-06-07T04:58:09.019Z,1800
2016-06-07T04:59:09.007Z,1816
2016-06-07T05:00:09.009Z,1832
2016-06-07T05:01:08.996Z,1844
2016-06-07T05:02:08.982Z,1848
2016-06-07T05:03:09.095Z,1856
2016-06-07T05:04:08.957Z,1872
2016-06-07T05:05:08.945Z,1892
2016-06-07T05:06:08.932Z,1920
2016-06-07T05:07:08.934Z,1956
2016-06-07T05:08:09.218Z,2000
2016-06-07T05:09:08.767Z,2048
2016-06-07T05:10:08.911Z,2100
2016-06-07T05:11:08.757Z,2152
2016-06-07T05:12:08.869Z,2212
2016-06-07T05:13:08.872Z,2256
2016-06-07T05:14:08.859Z,2292
2016-06-07T05:15:08.862Z,2308
2016-06-07T05:16:08.833Z,2312
2016-06-07T05:17:09.038Z,2320
2016-06-07T05:18:08.808Z,2328
2016-06-07T05:19:08.919Z,2332
2016-06-07T05:20:08.797Z,2340
2016-06-07T05:21:08.799Z,2348
2016-06-07T05:22:09.537Z,2360
2016-06-07T05:23:08.758Z,2364
2016-06-07T05:24:08.746Z,2368
2016-06-07T05:25:08.748Z,2368
2016-06-07T05:26:08.735Z,2364
2016-06-07T05:27:08.722Z,2364
2016-06-07T05:28:08.725Z,2360
2016-06-07T05:29:08.727Z,2360
2016-06-07T05:30:08.698Z,2372
2016-06-07T05:31:08.685Z,2392
2016-06-07T05:32:08.673Z,2416
2016-06-07T05:33:08.660Z,2456
2016-06-07T05:34:08.507Z,2488
2016-06-07T05:35:08.682Z,2532
2016-06-07T05:36:08.481Z,2576
2016-06-07T05:37:09.264Z,2616
2016-06-07T05:38:08.627Z,2668
2016-06-07T05:39:08.614Z,2720
2016-06-07T05:40:08.632Z,2776
2016-06-07T05:41:08.603Z,2824
2016-06-07T05:42:09.137Z,2880
2016-06-07T05:43:08.562Z,2932
2016-06-07T05:44:08.425Z,2992
2016-06-07T05:45:08.567Z,3056
2016-06-07T05:46:08.398Z,3112
2016-06-07T05:47:08.541Z,3164
2016-06-07T05:48:08.575Z,3220
2016-06-07T05:49:08.531Z,3280
2016-06-07T05:50:08.502Z,3344
2016-06-07T05:51:08.489Z,3420
2016-06-07T05:52:09.055Z,3508
2016-06-07T05:53:08.464Z,3616
2016-06-07T05:54:08.483Z,3756
2016-06-07T05:55:08.454Z,3932
2016-06-07T05:56:08.457Z,4096
2016-06-07T05:57:08.444Z,4248
2016-06-07T05:58:08.447Z,4400
2016-06-07T05:59:08.433Z,4564
2016-06-07T06:00:08.420Z,4724
2016-06-07T06:01:08.408Z,4912
2016-06-07T06:02:08.394Z,5076
2016-06-07T06:03:08.397Z,5100
2016-06-07T06:04:08.384Z,5132
2016-06-07T06:05:08.371Z,5264
2016-06-07T06:06:08.374Z,5440
2016-06-07T06:07:08.362Z,5560
2016-06-07T06:08:08.207Z,5688
2016-06-07T06:09:08.163Z,5776
2016-06-07T06:10:08.323Z,5936
2016-06-07T06:11:08.168Z,6012
2016-06-07T06:12:08.312Z,5992
2016-06-07T06:13:08.284Z,6036
2016-06-07T06:14:08.286Z,6044
2016-06-07T06:15:08.273Z,6020
2016-06-07T06:16:08.291Z,5960
2016-06-07T06:17:08.248Z,5928
2016-06-07T06:18:08.266Z,5920
2016-06-07T06:19:08.253Z,5824
2016-06-07T06:20:08.239Z,5748
2016-06-07T06:21:08.070Z,5664
2016-06-07T06:22:08.058Z,5572
2016-06-07T06:23:08.733Z,5464
2016-06-07T06:24:08.188Z,5432
2016-06-07T06:25:08.175Z,5464
2016-06-07T06:26:08.006Z,5488
2016-06-07T06:27:08.165Z,5624
2016-06-07T06:28:08.152Z,5792
2016-06-07T06:29:08.154Z,5864
2016-06-07T06:30:08.158Z,5824
2016-06-07T06:31:08.144Z,5712
2016-06-07T06:32:08.115Z,5660
2016-06-07T06:33:08.135Z,5612
2016-06-07T06:34:08.137Z,5736
2016-06-07T06:35:08.139Z,5704
2016-06-07T06:36:08.079Z,5764
2016-06-07T06:37:08.598Z,5772
2016-06-07T06:38:07.929Z,5756
2016-06-07T06:39:08.087Z,5840
2016-06-07T06:40:08.059Z,5972
2016-06-07T06:41:08.092Z,5968
2016-06-07T06:42:08.049Z,5872
2016-06-07T06:43:08.052Z,6044
2016-06-07T06:44:08.023Z,6080
2016-06-07T06:45:08.041Z,6152
2016-06-07T06:46:08.013Z,6244
2016-06-07T06:47:08.000Z,6296
2016-06-07T06:48:08.002Z,6296
2016-06-07T06:49:07.881Z,6440
2016-06-07T06:50:07.961Z,6536
2016-06-07T06:51:08.026Z,6580
2016-06-07T06:52:07.966Z,6620
2016-06-07T06:53:07.954Z,6668
2016-06-07T06:54:07.941Z,6716
2016-06-07T06:55:07.958Z,6768
2016-06-07T06:56:07.931Z,6820
2016-06-07T06:57:07.949Z,6848
2016-06-07T06:58:07.902Z,6880
2016-06-07T06:59:07.905Z,6852
2016-06-07T07:00:07.891Z,6960
2016-06-07T07:01:07.878Z,6996
2016-06-07T07:02:07.882Z,7028
2016-06-07T07:03:07.869Z,7076
2016-06-07T07:04:07.855Z,7112
2016-06-07T07:05:07.858Z,7140
2016-06-07T07:06:07.830Z,7184
2016-06-07T07:07:08.444Z,7212
2016-06-07T07:08:07.773Z,7220
2016-06-07T07:09:07.821Z,7248
2016-06-07T07:10:07.840Z,7252
2016-06-07T07:11:07.812Z,7244
2016-06-07T07:12:07.814Z,7256
2016-06-07T07:13:07.786Z,7248
2016-06-07T07:14:07.789Z,7192
2016-06-07T07:15:07.760Z,7104
2016-06-07T07:16:07.778Z,6904
2016-06-07T07:17:07.765Z,6960
2016-06-07T07:18:07.753Z,6968
2016-06-07T07:19:07.755Z,7084
2016-06-07T07:20:07.726Z,7276
2016-06-07T07:21:07.728Z,7484
2016-06-07T07:22:07.936Z,7540
2016-06-07T07:23:08.328Z,7588
2016-06-07T07:24:07.705Z,7632
2016-06-07T07:25:07.694Z,7672
2016-06-07T07:26:07.727Z,7704
2016-06-07T07:27:07.699Z,7736
2016-06-07T07:28:07.716Z,7792
2016-06-07T07:29:07.657Z,7840
2016-06-07T07:30:07.660Z,7880
2016-06-07T07:31:07.663Z,7912
2016-06-07T07:32:07.633Z,7960
2016-06-07T07:33:07.496Z,7980
2016-06-07T07:34:07.639Z,8028
2016-06-07T07:35:07.611Z,8064
2016-06-07T07:36:07.613Z,8112
2016-06-07T07:37:08.210Z,8164
2016-06-07T07:38:07.619Z,8212
2016-06-07T07:39:07.606Z,8260
2016-06-07T07:40:07.608Z,8224
2016-06-07T07:41:07.407Z,8188
2016-06-07T07:42:07.427Z,8128
2016-06-07T07:43:07.570Z,8160
2016-06-07T07:44:07.510Z,8356
2016-06-07T07:45:07.559Z,8488
2016-06-07T07:46:07.546Z,8552
2016-06-07T07:47:07.580Z,8592
2016-06-07T07:48:07.537Z,8620
2016-06-07T07:49:07.539Z,8604
2016-06-07T07:50:07.525Z,8576
2016-06-07T07:51:07.513Z,8544
2016-06-07T07:52:07.391Z,8552
2016-06-07T07:53:07.675Z,8640
2016-06-07T07:54:07.505Z,8748
2016-06-07T07:55:07.508Z,8852
2016-06-07T07:56:07.480Z,8928
2016-06-07T07:57:07.529Z,8952
2016-06-07T07:58:07.500Z,8852
2016-06-07T07:59:07.519Z,8932
2016-06-07T08:00:07.459Z,9024
2016-06-07T08:01:07.508Z,9112
2016-06-07T08:02:07.324Z,9192
2016-06-07T08:03:07.499Z,9248
2016-06-07T08:04:07.438Z,9280
2016-06-07T08:05:07.519Z,9312
2016-06-07T08:06:07.428Z,9340
2016-06-07T08:07:07.884Z,9372
2016-06-07T08:08:07.403Z,9400
2016-06-07T08:09:07.468Z,9436
2016-06-07T08:10:07.408Z,9472
2016-06-07T08:11:07.457Z,9496
2016-06-07T08:12:07.398Z,9504
2016-06-07T08:13:07.385Z,9444
2016-06-07T08:14:07.371Z,9668
2016-06-07T08:15:07.390Z,9752
2016-06-07T08:16:07.392Z,9800
2016-06-07T08:17:07.411Z,9844
2016-06-07T08:18:07.382Z,9880
2016-06-07T08:19:07.370Z,9928
2016-06-07T08:20:07.373Z,9972
2016-06-07T08:21:07.359Z,10016
2016-06-07T08:22:07.346Z,10060
2016-06-07T08:23:07.270Z,10104
2016-06-07T08:24:07.353Z,10136
2016-06-07T08:25:07.339Z,10180
2016-06-07T08:26:07.310Z,10212
2016-06-07T08:27:07.328Z,10308
2016-06-07T08:28:07.316Z,10272
2016-06-07T08:29:07.177Z,10388
2016-06-07T08:30:07.353Z,10468
2016-06-07T08:31:07.167Z,10524
2016-06-07T08:32:07.295Z,10584
2016-06-07T08:33:07.282Z,10636
2016-06-07T08:34:07.285Z,10680
2016-06-07T08:35:07.287Z,10740
2016-06-07T08:36:07.274Z,10800
2016-06-07T08:37:07.263Z,10872
2016-06-07T08:38:07.811Z,10960
2016-06-07T08:39:07.095Z,11072
2016-06-07T08:40:07.285Z,11192
2016-06-07T08:41:07.256Z,11304
2016-06-07T08:42:07.229Z,11456
2016-06-07T08:43:07.246Z,11612
2016-06-07T08:44:07.296Z,11796
2016-06-07T08:45:07.236Z,11792
2016-06-07T08:46:06.926Z,11880
2016-06-07T08:47:07.226Z,12080
2016-06-07T08:48:07.260Z,12300
2016-06-07T08:49:07.231Z,12560
2016-06-07T08:50:07.078Z,12956
2016-06-07T08:51:07.220Z,13240
2016-06-07T08:52:07.209Z,13480
2016-06-07T08:53:07.851Z,13640
2016-06-07T08:54:07.042Z,13872
2016-06-07T08:55:07.200Z,14064
2016-06-07T08:56:07.203Z,14044
2016-06-07T08:57:07.175Z,14308
2016-06-07T08:58:07.178Z,14392
2016-06-07T08:59:07.180Z,13972
2016-06-07T09:00:07.042Z,13572
2016-06-07T09:01:07.155Z,13420
2016-06-07T09:02:07.157Z,13700
2016-06-07T09:03:07.035Z,14608
2016-06-07T09:04:07.163Z,15268
2016-06-07T09:05:07.227Z,15304
2016-06-07T09:06:07.168Z,14536
2016-06-07T09:07:07.155Z,13236
2016-06-07T09:08:07.001Z,13116
2016-06-07T09:09:07.191Z,13092
2016-06-07T09:10:07.132Z,14200
2016-06-07T09:11:07.040Z,18432
2016-06-07T09:12:07.138Z,24128
2016-06-07T09:13:07.155Z,29600
2016-06-07T09:14:07.143Z,35488
2016-06-07T09:15:07.129Z,44032
2016-06-07T09:16:07.148Z,49824
2016-06-07T09:17:07.120Z,52608
2016-06-07T09:18:07.153Z,54624
2016-06-07T09:19:07.171Z,55808
2016-06-07T09:20:07.112Z,53760
2016-06-07T09:21:07.130Z,52960
2016-06-07T09:22:07.118Z,55232
2016-06-07T09:23:06.839Z,55104
2016-06-07T09:24:07.091Z,56480
2016-06-07T09:25:07.109Z,56448
2016-06-07T09:26:07.128Z,55360
2016-06-07T09:27:07.100Z,55360
2016-06-07T09:28:06.946Z,55232
2016-06-07T09:29:06.933Z,54720
2016-06-07T09:30:07.091Z,55776
2016-06-07T09:31:07.094Z,54624
2016-06-07T09:32:06.957Z,54528
2016-06-07T09:33:07.116Z,54208
2016-06-07T09:34:07.103Z,53184
2016-06-07T09:35:07.106Z,51520
2016-06-07T09:36:06.936Z,52032
2016-06-07T09:37:07.094Z,52352
2016-06-07T09:38:07.488Z,51264
2016-06-07T09:39:06.960Z,53216
2016-06-07T09:40:07.102Z,53984
2016-06-07T09:41:07.121Z,53696
2016-06-07T09:42:07.155Z,51360
2016-06-07T09:43:06.971Z,46464
2016-06-07T09:44:07.098Z,47296
2016-06-07T09:45:07.101Z,51456
2016-06-07T09:46:06.978Z,51808
2016-06-07T09:47:07.107Z,50976
2016-06-07T09:48:07.124Z,52576
2016-06-07T09:49:06.784Z,50336
2016-06-07T09:50:07.115Z,48704
2016-06-07T09:51:07.117Z,45536
2016-06-07T09:52:07.104Z,43840
2016-06-07T09:53:07.029Z,46880
2016-06-07T09:54:07.406Z,48704
2016-06-07T09:55:07.143Z,46464
2016-06-07T09:56:06.975Z,47424
2016-06-07T09:57:07.133Z,48832
2016-06-07T09:58:07.120Z,49312
2016-06-07T09:59:07.123Z,46624
2016-06-07T10:00:07.125Z,45472
2016-06-07T10:01:07.159Z,45920
2016-06-07T10:02:06.991Z,44768
2016-06-07T10:03:07.133Z,41536
2016-06-07T10:04:07.152Z,40352
2016-06-07T10:05:07.280Z,44512
2016-06-07T10:06:07.158Z,44864
2016-06-07T10:07:07.160Z,43200
2016-06-07T10:08:07.147Z,42528
2016-06-07T10:09:07.213Z,42336
2016-06-07T10:10:07.138Z,42976
2016-06-07T10:11:07.077Z,42496
2016-06-07T10:12:07.173Z,39552
2016-06-07T10:13:07.176Z,39424
2016-06-07T10:14:07.163Z,38080
2016-06-07T10:15:07.182Z,36928
2016-06-07T10:16:07.169Z,37184
2016-06-07T10:17:07.171Z,35648
2016-06-07T10:18:07.018Z,35040
2016-06-07T10:19:07.208Z,24800
2016-06-07T10:20:07.228Z,30784
2016-06-07T10:21:07.183Z,29792
2016-06-07T10:22:07.216Z,32192
2016-06-07T10:23:07.064Z,30592
2016-06-07T10:24:07.207Z,29920
2016-06-07T10:25:07.193Z,27552
2016-06-07T10:26:07.197Z,18784
2016-06-07T10:27:07.184Z,13500
2016-06-07T10:28:07.265Z,11668
2016-06-07T10:29:07.032Z,10776
2016-06-07T10:30:13.676Z,10072
2016-06-07T10:31:07.194Z,9232
2016-06-07T10:32:07.198Z,8404
2016-06-07T10:33:07.215Z,7900
2016-06-07T10:34:07.203Z,7544
2016-06-07T10:35:07.190Z,7244
2016-06-07T10:36:07.208Z,6936
2016-06-07T10:37:07.195Z,6624
2016-06-07T10:38:07.103Z,6352
2016-06-07T10:39:07.232Z,6144
2016-06-07T10:40:07.187Z,5980
2016-06-07T10:41:07.222Z,5832
2016-06-07T10:42:07.209Z,5680
2016-06-07T10:43:07.180Z,5536
2016-06-07T10:44:07.183Z,5392
2016-06-07T10:45:07.186Z,5256
2016-06-07T10:46:07.188Z,5136
2016-06-07T10:47:07.238Z,5036
2016-06-07T10:48:07.193Z,4960
2016-06-07T10:49:07.181Z,4908
2016-06-07T10:50:07.167Z,4892
2016-06-07T10:51:07.202Z,4908
2016-06-07T10:52:07.204Z,4932
2016-06-07T10:53:07.582Z,4960
2016-06-07T10:54:07.193Z,4996
2016-06-07T10:55:07.209Z,5008
2016-06-07T10:56:07.196Z,5028
2016-06-07T10:57:07.275Z,5056
2016-06-07T10:58:07.231Z,5100
2016-06-07T10:59:07.249Z,5164
2016-06-07T11:00:07.071Z,5260
2016-06-07T11:01:07.266Z,5364
2016-06-07T11:02:07.258Z,5464
2016-06-07T11:03:07.236Z,5528
2016-06-07T11:04:07.244Z,5560
2016-06-07T11:05:07.265Z,5564
2016-06-07T11:06:07.237Z,5384
2016-06-07T11:07:07.258Z,5452
2016-06-07T11:08:08.341Z,5428
2016-06-07T11:09:07.268Z,5400
2016-06-07T11:10:07.224Z,5372
2016-06-07T11:11:07.227Z,5360
2016-06-07T11:12:07.231Z,5364
2016-06-07T11:13:07.219Z,5372
2016-06-07T11:14:07.268Z,5384
2016-06-07T11:15:07.241Z,5292
2016-06-07T11:16:07.244Z,5444
2016-06-07T11:17:07.231Z,5468
2016-06-07T11:18:07.281Z,5520
2016-06-07T11:19:07.253Z,5536
2016-06-07T11:20:07.194Z,5548
2016-06-07T11:21:07.212Z,5568
2016-06-07T11:22:07.214Z,5592
2016-06-07T11:23:07.061Z,5616
2016-06-07T11:24:07.297Z,5612
2016-06-07T11:25:07.191Z,5640
2016-06-07T11:26:07.194Z,5664
2016-06-07T11:27:07.180Z,5688
2016-06-07T11:28:07.231Z,5692
2016-06-07T11:29:07.046Z,5688
2016-06-07T11:30:07.189Z,5688
2016-06-07T11:31:07.004Z,5704
2016-06-07T11:32:07.180Z,5716
2016-06-07T11:33:07.166Z,5740
2016-06-07T11:34:07.169Z,5800
2016-06-07T11:35:07.155Z,5836
2016-06-07T11:36:07.158Z,6012
2016-06-07T11:37:07.160Z,5988
2016-06-07T11:38:06.867Z,6036
2016-06-07T11:39:08.166Z,6092
2016-06-07T11:40:07.137Z,6144
2016-06-07T11:41:07.203Z,6224
2016-06-07T11:42:07.128Z,6324
2016-06-07T11:43:07.177Z,6412
2016-06-07T11:44:07.149Z,6548
2016-06-07T11:45:07.104Z,6748
2016-06-07T11:46:07.107Z,7124
2016-06-07T11:47:07.141Z,7860
2016-06-07T11:48:07.112Z,8076
2016-06-07T11:49:07.147Z,8016
2016-06-07T11:50:07.118Z,8400
2016-06-07T11:51:07.184Z,8708
2016-06-07T11:52:07.108Z,10168
2016-06-07T11:53:08.204Z,10400
2016-06-07T11:54:08.300Z,11820
2016-06-07T11:55:07.100Z,12104
2016-06-07T11:56:07.086Z,12280
2016-06-07T11:57:07.137Z,11320
2016-06-07T11:58:07.077Z,11040
2016-06-07T11:59:07.080Z,10372
2016-06-07T12:00:07.083Z,10004
2016-06-07T12:01:07.100Z,10276
2016-06-07T12:02:07.088Z,11688
2016-06-07T12:03:07.074Z,12596
2016-06-07T12:04:07.077Z,10804
2016-06-07T12:05:07.065Z,9408
2016-06-07T12:06:07.052Z,9584
2016-06-07T12:07:07.055Z,9668
2016-06-07T12:08:07.088Z,11136
2016-06-07T12:09:07.091Z,11428
2016-06-07T12:10:07.046Z,9976
2016-06-07T12:11:07.065Z,10676
2016-06-07T12:12:07.083Z,10116
2016-06-07T12:13:07.054Z,11272
2016-06-07T12:14:07.042Z,11724
2016-06-07T12:15:07.045Z,11784
2016-06-07T12:16:07.032Z,11672
2016-06-07T12:17:07.065Z,11344
2016-06-07T12:18:07.053Z,10112
2016-06-07T12:19:07.040Z,10912
2016-06-07T12:20:07.089Z,10416
2016-06-07T12:21:07.061Z,10276
2016-06-07T12:22:07.032Z,11216
2016-06-07T12:23:07.129Z,11028
2016-06-07T12:24:07.006Z,11128
2016-06-07T12:25:07.056Z,11504
2016-06-07T12:26:07.043Z,11144
2016-06-07T12:27:07.045Z,10148
2016-06-07T12:28:07.064Z,10724
2016-06-07T12:29:07.050Z,8244
2016-06-07T12:30:07.053Z,8008
2016-06-07T12:31:07.041Z,8592
2016-06-07T12:32:07.044Z,9880
2016-06-07T12:33:07.030Z,10356
2016-06-07T12:34:07.033Z,10324
2016-06-07T12:35:07.035Z,9580
2016-06-07T12:36:07.038Z,9124
2016-06-07T12:37:07.026Z,9976
2016-06-07T12:38:07.012Z,9560
2016-06-07T12:39:07.187Z,9092
2016-06-07T12:40:07.018Z,8696
2016-06-07T12:41:07.021Z,8692
2016-06-07T12:42:07.040Z,8680
2016-06-07T12:43:07.026Z,9332
2016-06-07T12:44:07.013Z,8976
2016-06-07T12:45:07.078Z,8900
2016-06-07T12:46:07.018Z,8780
2016-06-07T12:47:07.053Z,8740
2016-06-07T12:48:07.024Z,8848
2016-06-07T12:49:07.074Z,9184
2016-06-07T12:50:07.014Z,8792
2016-06-07T12:51:06.860Z,9088
2016-06-07T12:52:06.863Z,9116
2016-06-07T12:53:07.006Z,9084
2016-06-07T12:54:07.572Z,8928
2016-06-07T12:55:07.027Z,8944
2016-06-07T12:56:06.998Z,8924
2016-06-07T12:57:06.986Z,8856
2016-06-07T12:58:07.020Z,8848
2016-06-07T12:59:06.991Z,8816
2016-06-07T13:00:06.994Z,8752
2016-06-07T13:01:06.996Z,5236
2016-06-07T13:02:06.999Z,7588
2016-06-07T13:03:06.986Z,4856
2016-06-07T13:04:06.989Z,4640
2016-06-07T13:05:06.961Z,4488
2016-06-07T13:06:07.025Z,4364
2016-06-07T13:07:06.996Z,4848
2016-06-07T13:08:07.047Z,4212
2016-06-07T13:09:06.846Z,4188
2016-06-07T13:10:06.818Z,4228
2016-06-07T13:11:06.960Z,4288
2016-06-07T13:12:06.823Z,4404
2016-06-07T13:13:06.826Z,4512
2016-06-07T13:14:07.000Z,4580
2016-06-07T13:15:06.956Z,4740
2016-06-07T13:16:06.959Z,4892
2016-06-07T13:17:06.961Z,5020
2016-06-07T13:18:06.948Z,5084
2016-06-07T13:19:06.935Z,5092
2016-06-07T13:20:06.954Z,5072
2016-06-07T13:21:06.940Z,4960
2016-06-07T13:22:07.006Z,4788
2016-06-07T13:23:06.962Z,4552
2016-06-07T13:24:06.995Z,4276
2016-06-07T13:25:06.936Z,4056
2016-06-07T13:26:06.907Z,3884
2016-06-07T13:27:06.911Z,3696
2016-06-07T13:28:06.914Z,3472
2016-06-07T13:29:06.916Z,3220
2016-06-07T13:30:06.919Z,2944
2016-06-07T13:31:06.905Z,2684
2016-06-07T13:32:06.908Z,2412
2016-06-07T13:33:06.910Z,2192
2016-06-07T13:34:06.913Z,2012